createdAt,value
2018-03-23T00:00:00.178Z,37.31
2018-03-23T00:02:26.520Z,37.32
2018-03-23T00:04:53.134Z,37.38
2018-03-23T00:07:19.518Z,37.34
2018-03-23T00:09:46.335Z,37.55
2018-03-23T00:12:12.820Z,37.37
2018-03-23T00:14:39.204Z,37.49
2018-03-23T00:17:05.607Z,37.45
2018-03-23T00:19:31.955Z,37.45
2018-03-23T00:21:58.300Z,37.53
2018-03-23T00:24:24.633Z,37.69
2018-03-23T00:26:51.033Z,37.69
2018-03-23T00:29:17.375Z,37.63
2018-03-23T00:31:43.803Z,37.57
2018-03-23T00:34:10.198Z,37.61
2018-03-23T00:36:36.596Z,37.54
2018-03-23T00:39:02.956Z,37.61
2018-03-23T00:41:29.306Z,37.63
2018-03-23T00:43:55.672Z,37.74
2018-03-23T00:46:22.048Z,37.70
2018-03-23T00:48:48.465Z,37.78
2018-03-23T00:51:14.823Z,37.72
2018-03-23T00:53:41.282Z,37.81
2018-03-23T00:56:07.657Z,37.75
2018-03-23T00:58:34.073Z,37.78
2018-03-23T01:01:00.485Z,37.84
2018-03-23T01:03:26.955Z,37.93
2018-03-23T01:05:53.371Z,37.88
2018-03-23T01:08:20.913Z,37.73
2018-03-23T01:10:47.417Z,37.73
2018-03-23T01:13:13.866Z,37.89
2018-03-23T01:15:40.305Z,37.63
2018-03-23T01:18:06.655Z,37.73
2018-03-23T01:20:33.070Z,37.84
2018-03-23T01:22:59.438Z,37.87
2018-03-23T01:25:25.818Z,37.95
2018-03-23T01:27:52.167Z,37.66
2018-03-23T01:30:18.529Z,37.76
2018-03-23T01:32:44.922Z,37.82
2018-03-23T01:35:11.309Z,37.54
2018-03-23T01:37:37.705Z,37.71
2018-03-23T01:40:04.112Z,37.87
2018-03-23T01:42:30.441Z,37.78
2018-03-23T01:44:56.789Z,37.90
2018-03-23T01:47:23.144Z,37.86
2018-03-23T01:49:49.566Z,37.92
2018-03-23T01:52:15.995Z,37.92
2018-03-23T01:54:42.616Z,37.88
2018-03-23T01:57:08.980Z,37.88
2018-03-23T01:59:35.448Z,38.04
2018-03-23T02:02:01.802Z,37.83
2018-03-23T02:04:28.212Z,36.83
2018-03-23T02:06:54.758Z,37.31
2018-03-23T02:09:21.121Z,37.36
2018-03-23T02:11:47.465Z,37.30
2018-03-23T02:14:13.900Z,37.57
2018-03-23T02:16:40.438Z,37.50
2018-03-23T02:19:06.974Z,37.51
2018-03-23T02:21:33.395Z,37.60
2018-03-23T02:23:59.749Z,37.38
2018-03-23T02:26:27.078Z,37.15
2018-03-23T02:28:53.412Z,37.36
2018-03-23T02:31:19.936Z,37.38
2018-03-23T02:33:46.323Z,37.19
2018-03-23T02:36:12.831Z,37.03
2018-03-23T02:38:39.248Z,37.03
2018-03-23T02:41:05.653Z,36.83
2018-03-23T02:43:32.302Z,36.66
2018-03-23T02:45:58.695Z,36.75
2018-03-23T02:48:25.193Z,36.56
2018-03-23T02:50:51.770Z,36.50
2018-03-23T02:53:18.753Z,36.48
2018-03-23T02:55:47.210Z,36.49
2018-03-23T02:58:13.780Z,36.41
2018-03-23T03:00:40.291Z,36.44
2018-03-23T03:03:06.889Z,36.31
2018-03-23T03:05:33.317Z,36.37
2018-03-23T03:07:59.726Z,36.20
2018-03-23T03:10:26.127Z,36.19
2018-03-23T03:12:52.491Z,36.11
2018-03-23T03:15:18.842Z,36.26
2018-03-23T03:17:45.181Z,36.11
2018-03-23T03:20:12.261Z,36.14
2018-03-23T03:22:38.605Z,35.93
2018-03-23T03:25:04.978Z,36.11
2018-03-23T03:27:31.404Z,36.06
2018-03-23T03:29:57.801Z,36.09
2018-03-23T03:32:24.152Z,35.97
2018-03-23T03:34:50.510Z,35.82
2018-03-23T03:37:16.882Z,36.10
2018-03-23T03:39:43.307Z,36.04
2018-03-23T03:42:09.679Z,35.81
2018-03-23T03:44:36.026Z,35.80
2018-03-23T03:47:02.483Z,35.80
2018-03-23T03:49:28.869Z,35.83
2018-03-23T03:51:55.384Z,35.74
2018-03-23T03:54:21.941Z,35.63
2018-03-23T03:56:48.302Z,35.76
2018-03-23T03:59:14.814Z,35.69
2018-03-23T04:01:41.835Z,35.79
2018-03-23T04:04:08.313Z,35.84
2018-03-23T04:06:34.780Z,35.61
2018-03-23T04:09:01.109Z,35.75
2018-03-23T04:11:27.529Z,35.78
2018-03-23T04:13:53.928Z,35.75
2018-03-23T04:16:20.274Z,35.58
2018-03-23T04:18:46.697Z,35.58
2018-03-23T04:21:13.184Z,35.51
2018-03-23T04:23:39.544Z,35.57
2018-03-23T04:26:05.907Z,35.56
2018-03-23T04:28:32.238Z,35.57
2018-03-23T04:30:58.658Z,35.64
2018-03-23T04:33:25.082Z,35.76
2018-03-23T04:35:51.576Z,35.37
2018-03-23T04:38:18.043Z,35.70
2018-03-23T04:40:44.439Z,35.57
2018-03-23T04:43:11.056Z,35.48
2018-03-23T04:45:37.444Z,35.56
2018-03-23T04:48:03.770Z,35.54
2018-03-23T04:50:30.121Z,35.49
2018-03-23T04:52:56.581Z,35.64
2018-03-23T04:55:22.918Z,35.43
2018-03-23T04:57:49.575Z,35.07
2018-03-23T05:00:16.103Z,35.07
2018-03-23T05:02:43.030Z,35.37
2018-03-23T05:05:09.765Z,35.15
2018-03-23T05:07:36.172Z,35.17
2018-03-23T05:10:02.606Z,35.26
2018-03-23T05:12:29.459Z,35.11
2018-03-23T05:14:55.901Z,35.07
2018-03-23T05:17:22.249Z,35.14
2018-03-23T05:19:48.710Z,35.15
2018-03-23T05:22:15.336Z,34.95
2018-03-23T05:24:41.779Z,34.87
2018-03-23T05:27:08.218Z,34.73
2018-03-23T05:29:34.545Z,34.56
2018-03-23T05:32:00.940Z,34.67
2018-03-23T05:34:27.476Z,34.60
2018-03-23T05:36:53.894Z,34.94
2018-03-23T05:39:20.241Z,34.88
2018-03-23T05:41:46.691Z,34.45
2018-03-23T05:44:13.312Z,34.84
2018-03-23T05:46:39.971Z,34.70
2018-03-23T05:49:06.308Z,34.63
2018-03-23T05:51:32.721Z,34.78
2018-03-23T05:53:59.105Z,34.78
2018-03-23T05:56:25.427Z,34.59
2018-03-23T05:58:51.813Z,34.74
2018-03-23T06:01:18.192Z,34.69
2018-03-23T06:03:44.569Z,34.56
2018-03-23T06:06:10.919Z,34.55
2018-03-23T06:08:37.983Z,34.67
2018-03-23T06:11:04.548Z,34.41
2018-03-23T06:13:30.990Z,34.41
2018-03-23T06:15:59.080Z,34.26
2018-03-23T06:18:25.576Z,34.49
2018-03-23T06:20:52.168Z,33.91
2018-03-23T06:23:18.561Z,34.05
2018-03-23T06:25:44.972Z,34.51
2018-03-23T06:28:11.302Z,34.12
2018-03-23T06:30:37.884Z,34.05
2018-03-23T06:33:04.271Z,34.60
2018-03-23T06:35:31.054Z,34.17
2018-03-23T06:37:57.459Z,34.02
2018-03-23T06:40:24.208Z,33.87
2018-03-23T06:42:51.592Z,34.02
2018-03-23T06:45:18.243Z,33.70
2018-03-23T06:47:44.794Z,33.99
2018-03-23T06:50:19.298Z,33.98
2018-03-23T06:52:46.219Z,34.09
2018-03-23T06:55:12.684Z,34.02
2018-03-23T06:57:40.117Z,33.73
2018-03-23T07:00:07.833Z,34.53
2018-03-23T07:02:34.239Z,34.55
2018-03-23T07:05:01.200Z,33.60
2018-03-23T07:07:27.900Z,34.10
2018-03-23T07:09:54.457Z,34.31
2018-03-23T07:12:21.565Z,33.97
2018-03-23T07:14:48.050Z,34.05
2018-03-23T07:17:18.456Z,33.55
2018-03-23T07:19:45.382Z,33.30
2018-03-23T07:22:12.127Z,33.79
2018-03-23T07:24:38.844Z,33.73
2018-03-23T07:27:07.399Z,33.90
2018-03-23T07:29:40.622Z,33.52
2018-03-23T07:34:46.485Z,33.73
2018-03-23T07:37:14.172Z,33.52
2018-03-23T07:39:40.700Z,33.63
2018-03-23T07:42:07.274Z,33.46
2018-03-23T07:44:34.377Z,33.75
2018-03-23T07:47:01.390Z,33.44
2018-03-23T07:49:28.057Z,33.46
2018-03-23T07:51:56.134Z,33.74
2018-03-23T07:54:22.536Z,33.75
2018-03-23T07:56:50.208Z,33.73
2018-03-23T07:59:23.078Z,33.67
2018-03-23T08:04:23.407Z,33.53
2018-03-23T08:06:51.356Z,33.28
2018-03-23T08:09:20.752Z,32.91
2018-03-23T08:11:47.538Z,33.18
2018-03-23T08:14:14.133Z,33.01
2018-03-23T08:16:40.720Z,34.03
2018-03-23T08:19:09.160Z,34.54
2018-03-23T08:21:35.850Z,33.37
2018-03-23T08:24:03.424Z,33.46
2018-03-23T08:26:30.465Z,33.00
2018-03-23T08:28:57.282Z,33.49
2018-03-23T08:31:24.854Z,33.56
2018-03-23T08:33:51.297Z,33.39
2018-03-23T08:36:17.892Z,33.62
2018-03-23T08:38:48.524Z,33.80
2018-03-23T08:41:19.030Z,33.07
2018-03-23T08:43:47.548Z,33.46
2018-03-23T08:46:16.691Z,33.05
2018-03-23T08:54:03.626Z,33.02
2018-03-23T08:56:30.744Z,33.36
2018-03-23T08:58:57.523Z,33.25
2018-03-23T09:01:41.041Z,33.44
2018-03-23T09:04:11.201Z,33.34
2018-03-23T09:06:38.832Z,33.13
2018-03-23T09:09:05.683Z,33.27
2018-03-23T09:16:43.019Z,33.24
2018-03-23T09:19:10.237Z,33.29
2018-03-23T09:22:11.480Z,33.47
2018-03-23T09:29:56.380Z,33.86
2018-03-23T09:35:30.238Z,33.80
2018-03-23T09:40:58.244Z,34.04
2018-03-23T09:48:56.771Z,33.71
2018-03-23T09:51:35.724Z,33.50
2018-03-23T09:54:04.127Z,33.53
2018-03-23T09:56:33.949Z,33.62
2018-03-23T10:04:38.687Z,33.86
2018-03-23T10:07:07.200Z,33.56
2018-03-23T10:09:38.316Z,33.66
2018-03-23T10:17:20.345Z,33.52
2018-03-23T10:22:26.182Z,33.83
2018-03-23T10:25:01.600Z,33.66
2018-03-23T10:27:31.606Z,33.62
2018-03-23T10:35:17.904Z,33.12
2018-03-23T10:40:17.607Z,33.08
2018-03-23T10:48:39.826Z,33.22
2018-03-23T10:51:14.538Z,33.29
2018-03-23T10:53:43.973Z,33.50
2018-03-23T11:01:20.266Z,33.78
2018-03-23T11:03:50.502Z,33.47
2018-03-23T11:12:21.495Z,33.29
2018-03-23T11:14:53.582Z,33.63
2018-03-23T11:22:36.497Z,33.45
2018-03-23T11:25:06.905Z,33.60
2018-03-23T11:27:38.236Z,33.21
2018-03-23T11:30:10.187Z,33.16
2018-03-23T11:35:18.539Z,33.71
2018-03-23T11:37:47.771Z,33.46
2018-03-23T11:40:16.013Z,33.83
2018-03-23T11:55:46.120Z,33.93
2018-03-23T11:58:12.569Z,33.77
2018-03-23T12:00:39.007Z,33.96
2018-03-23T12:03:05.429Z,34.01
2018-03-23T12:05:34.041Z,33.94
2018-03-23T12:08:00.592Z,33.44
2018-03-23T12:10:27.246Z,33.65
2018-03-23T12:12:53.663Z,33.46
2018-03-23T12:15:20.120Z,33.89
2018-03-23T12:17:46.575Z,33.45
2018-03-23T12:20:13.065Z,33.79
2018-03-23T12:22:39.544Z,33.95
2018-03-23T12:25:06.190Z,33.46
2018-03-23T12:27:32.569Z,33.27
2018-03-23T12:29:59.057Z,33.10
2018-03-23T12:32:25.758Z,33.06
2018-03-23T12:34:52.335Z,33.24
2018-03-23T12:37:18.869Z,33.82
2018-03-23T12:39:45.334Z,33.17
2018-03-23T12:42:11.721Z,33.17
2018-03-23T12:44:38.166Z,33.15
2018-03-23T12:47:04.671Z,33.43
2018-03-23T12:49:32.104Z,33.43
2018-03-23T12:51:58.589Z,33.44
2018-03-23T12:54:25.200Z,33.05
2018-03-23T12:56:51.578Z,33.36
2018-03-23T12:59:18.048Z,33.19
2018-03-23T13:01:44.652Z,33.50
2018-03-23T13:04:11.344Z,33.48
2018-03-23T13:06:37.834Z,33.68
2018-03-23T13:09:04.285Z,33.75
2018-03-23T13:11:30.739Z,33.91
2018-03-23T13:13:57.106Z,33.64
2018-03-23T13:16:23.624Z,33.87
2018-03-23T13:18:50.238Z,33.54
2018-03-23T13:21:16.838Z,33.83
2018-03-23T13:23:43.343Z,33.29
2018-03-23T13:26:09.900Z,33.85
2018-03-23T13:28:36.328Z,33.77
2018-03-23T13:31:05.973Z,33.91
2018-03-23T13:33:32.409Z,33.84
2018-03-23T13:35:58.864Z,33.73
2018-03-23T13:38:25.462Z,33.82
2018-03-23T13:40:52.809Z,33.87
2018-03-23T13:43:19.349Z,34.01
2018-03-23T13:48:18.669Z,33.66
2018-03-23T13:50:45.145Z,33.72
2018-03-23T13:53:11.529Z,33.81
2018-03-23T13:55:37.910Z,33.38
2018-03-23T13:58:04.414Z,34.01
2018-03-23T14:00:30.837Z,34.38
2018-03-23T14:02:57.292Z,34.59
2018-03-23T14:05:23.723Z,33.96
2018-03-23T14:07:50.272Z,33.93
2018-03-23T14:10:16.667Z,34.08
2018-03-23T14:12:43.172Z,34.27
2018-03-23T14:15:09.899Z,33.92
2018-03-23T14:17:36.337Z,33.83
2018-03-23T14:20:02.747Z,34.34
2018-03-23T14:22:29.163Z,34.03
2018-03-23T14:24:55.631Z,33.96
2018-03-23T14:27:22.131Z,34.11
2018-03-23T14:29:48.604Z,34.63
2018-03-23T14:32:15.056Z,34.90
2018-03-23T14:34:41.525Z,35.18
2018-03-23T14:37:07.898Z,34.13
2018-03-23T14:39:34.338Z,34.20
2018-03-23T14:42:00.770Z,34.26
2018-03-23T14:44:27.172Z,34.80
2018-03-23T14:46:53.621Z,34.54
2018-03-23T14:49:20.054Z,34.46
2018-03-23T14:51:46.486Z,34.61
2018-03-23T14:54:12.914Z,34.67
2018-03-23T14:56:39.312Z,34.32
2018-03-23T14:59:05.772Z,34.63
2018-03-23T15:01:32.311Z,34.49
2018-03-23T15:03:58.875Z,34.99
2018-03-23T15:06:25.346Z,34.68
2018-03-23T15:08:51.790Z,34.63
2018-03-23T15:11:18.204Z,34.83
2018-03-23T15:13:44.773Z,35.01
2018-03-23T15:16:11.119Z,34.89
2018-03-23T15:18:37.572Z,34.85
2018-03-23T15:21:03.999Z,34.96
2018-03-23T15:23:30.397Z,35.09
2018-03-23T15:25:56.734Z,34.83
2018-03-23T15:28:23.118Z,35.08
2018-03-23T15:30:49.650Z,34.95
2018-03-23T15:33:16.251Z,34.80
2018-03-23T15:35:42.727Z,35.02
2018-03-23T15:38:09.185Z,34.69
2018-03-23T15:40:35.822Z,34.65
2018-03-23T15:43:02.233Z,35.02
2018-03-23T15:45:28.648Z,34.50
2018-03-23T15:47:55.049Z,34.73
2018-03-23T15:50:21.418Z,34.48
2018-03-23T15:52:47.805Z,34.83
2018-03-23T15:55:14.189Z,34.71
2018-03-23T15:57:40.545Z,34.79
2018-03-23T16:00:07.005Z,34.75
2018-03-23T16:02:33.575Z,34.17
2018-03-23T16:05:00.290Z,34.13
2018-03-23T16:07:26.682Z,34.38
2018-03-23T16:09:53.967Z,34.27
2018-03-23T16:12:20.451Z,34.60
2018-03-23T16:14:46.855Z,34.52
2018-03-23T16:17:13.413Z,34.78
2018-03-23T16:19:40.051Z,34.75
2018-03-23T16:22:06.483Z,35.08
2018-03-23T16:24:32.878Z,34.93
2018-03-23T16:26:59.285Z,34.62
2018-03-23T16:29:25.702Z,34.32
2018-03-23T16:31:52.055Z,34.65
2018-03-23T16:34:18.619Z,34.59
2018-03-23T16:36:45.738Z,34.59
2018-03-23T16:39:12.131Z,34.78
2018-03-23T16:41:38.482Z,34.74
2018-03-23T16:44:04.841Z,34.77
2018-03-23T16:46:31.171Z,34.97
2018-03-23T16:48:57.549Z,34.90
2018-03-23T16:51:23.897Z,35.02
2018-03-23T16:53:50.389Z,34.96
2018-03-23T16:56:16.746Z,34.58
2018-03-23T16:58:43.125Z,34.71
2018-03-23T17:01:09.470Z,34.77
2018-03-23T17:03:35.799Z,34.85
2018-03-23T17:06:02.126Z,34.76
2018-03-23T17:08:28.500Z,34.58
2018-03-23T17:10:54.902Z,34.76
2018-03-23T17:13:21.233Z,34.76
2018-03-23T17:15:47.574Z,34.55
2018-03-23T17:18:13.966Z,34.70
2018-03-23T17:20:40.294Z,34.99
2018-03-23T17:23:06.627Z,34.48
2018-03-23T17:25:32.977Z,34.67
2018-03-23T17:27:59.371Z,34.40
2018-03-23T17:30:25.777Z,34.60
2018-03-23T17:32:52.123Z,34.51
2018-03-23T17:35:18.495Z,34.79
2018-03-23T17:37:44.849Z,34.55
2018-03-23T17:40:11.187Z,34.63
2018-03-23T17:42:37.514Z,34.72
2018-03-23T17:45:03.940Z,34.67
2018-03-23T17:47:30.277Z,34.62
2018-03-23T17:49:56.618Z,34.79
2018-03-23T17:52:22.976Z,34.84
2018-03-23T17:54:49.346Z,35.03
2018-03-23T17:57:15.916Z,34.99
2018-03-23T17:59:42.352Z,35.01
2018-03-23T18:02:08.781Z,35.43
2018-03-23T18:04:35.120Z,35.43
2018-03-23T18:07:01.470Z,35.72
2018-03-23T18:09:27.828Z,35.76
2018-03-23T18:11:54.162Z,35.77
2018-03-23T18:14:20.519Z,35.76
2018-03-23T18:16:47.072Z,35.76
2018-03-23T18:19:13.398Z,35.75
2018-03-23T18:21:39.734Z,35.67
2018-03-23T18:24:06.064Z,35.71
2018-03-23T18:26:32.438Z,35.72
2018-03-23T18:28:58.809Z,35.71
2018-03-23T18:31:25.147Z,35.66
2018-03-23T18:33:51.565Z,35.84
2018-03-23T18:36:17.938Z,35.92
2018-03-23T18:38:44.315Z,35.84
2018-03-23T18:41:10.654Z,35.86
2018-03-23T18:43:36.986Z,35.64
2018-03-23T18:46:03.314Z,35.95
2018-03-23T18:48:29.690Z,35.90
2018-03-23T18:50:56.033Z,35.84
2018-03-23T18:53:22.365Z,35.85
2018-03-23T18:55:48.728Z,35.84
2018-03-23T18:58:15.071Z,35.87
2018-03-23T19:00:41.493Z,36.05
2018-03-23T19:03:07.850Z,36.09
2018-03-23T19:05:34.238Z,36.21
2018-03-23T19:08:00.571Z,36.36
2018-03-23T19:10:26.905Z,36.42
2018-03-23T19:12:53.304Z,36.33
2018-03-23T19:15:19.786Z,36.37
2018-03-23T19:17:46.158Z,36.50
2018-03-23T19:20:12.530Z,36.65
2018-03-23T19:22:38.985Z,36.68
2018-03-23T19:25:06.130Z,36.77
2018-03-23T19:27:32.502Z,36.81
2018-03-23T19:29:58.869Z,36.71
2018-03-23T19:32:25.202Z,36.72
2018-03-23T19:34:51.572Z,36.75
2018-03-23T19:37:17.974Z,36.76
2018-03-23T19:39:44.337Z,36.85
2018-03-23T19:42:10.686Z,37.03
2018-03-23T19:44:37.031Z,37.07
2018-03-23T19:47:03.458Z,37.15
2018-03-23T19:49:29.802Z,37.14
2018-03-23T19:51:56.243Z,37.10
2018-03-23T19:54:22.656Z,37.10
2018-03-23T19:56:49.021Z,37.13
2018-03-23T19:59:15.393Z,37.17
2018-03-23T20:01:41.773Z,37.21
2018-03-23T20:04:08.103Z,37.24
2018-03-23T20:06:34.515Z,37.26
2018-03-23T20:09:00.955Z,37.20
2018-03-23T20:11:27.336Z,37.27
2018-03-23T20:13:53.661Z,37.36
2018-03-23T20:16:20.006Z,37.42
2018-03-23T20:18:46.473Z,37.54
2018-03-23T20:21:12.820Z,37.57
2018-03-23T20:23:39.187Z,37.56
2018-03-23T20:26:05.529Z,37.53
2018-03-23T20:28:31.911Z,37.57
2018-03-23T20:30:58.326Z,37.60
2018-03-23T20:33:24.667Z,37.58
2018-03-23T20:35:51.057Z,37.79
2018-03-23T20:38:17.454Z,37.80
2018-03-23T20:40:43.842Z,37.84
2018-03-23T20:43:10.178Z,37.82
2018-03-23T20:45:36.566Z,37.86
2018-03-23T20:48:02.905Z,37.89
2018-03-23T20:50:29.263Z,37.83
2018-03-23T20:52:55.698Z,37.90
2018-03-23T20:55:22.109Z,37.97
2018-03-23T20:57:48.517Z,37.99
2018-03-23T21:00:14.867Z,38.01
2018-03-23T21:02:41.252Z,37.95
2018-03-23T21:05:07.658Z,37.87
2018-03-23T21:07:33.992Z,37.77
2018-03-23T21:10:00.376Z,37.76
2018-03-23T21:12:26.766Z,37.92
2018-03-23T21:14:53.153Z,37.97
2018-03-23T21:17:19.595Z,38.00
2018-03-23T21:19:46.006Z,37.96
2018-03-23T21:22:12.437Z,37.92
2018-03-23T21:24:38.856Z,37.87
2018-03-23T21:27:05.187Z,37.93
2018-03-23T21:29:31.538Z,37.88
2018-03-23T21:31:57.903Z,37.98
2018-03-23T21:34:24.265Z,38.02
2018-03-23T21:36:50.708Z,38.03
2018-03-23T21:39:17.148Z,38.03
2018-03-23T21:41:43.518Z,37.96
2018-03-23T21:44:09.889Z,37.92
2018-03-23T21:46:36.322Z,37.92
2018-03-23T21:49:02.745Z,37.95
2018-03-23T21:51:29.080Z,37.96
2018-03-23T21:53:55.516Z,38.05
2018-03-23T21:56:21.969Z,38.11
2018-03-23T21:58:48.363Z,38.07
2018-03-23T22:01:14.749Z,37.94
2018-03-23T22:03:41.117Z,37.99
2018-03-23T22:06:07.500Z,37.99
2018-03-23T22:08:33.980Z,37.96
2018-03-23T22:11:00.366Z,37.85
2018-03-23T22:13:26.720Z,37.93
2018-03-23T22:15:53.107Z,38.17
2018-03-23T22:18:19.454Z,38.12
2018-03-23T22:20:45.841Z,38.17
2018-03-23T22:23:12.419Z,37.96
2018-03-23T22:25:38.814Z,38.04
2018-03-23T22:28:05.227Z,38.00
2018-03-23T22:30:31.575Z,38.09
2018-03-23T22:32:57.958Z,38.01
2018-03-23T22:35:24.301Z,38.17
2018-03-23T22:37:50.696Z,38.19
2018-03-23T22:40:17.090Z,38.23
2018-03-23T22:42:43.448Z,38.16
2018-03-23T22:45:09.805Z,38.07
2018-03-23T22:47:36.174Z,38.17
2018-03-23T22:50:02.627Z,38.15
2018-03-23T22:52:28.998Z,38.17
2018-03-23T22:54:55.470Z,38.26
2018-03-23T22:57:21.906Z,38.29
2018-03-23T22:59:48.279Z,38.26
2018-03-23T23:02:14.676Z,38.28
2018-03-23T23:04:41.102Z,38.12
2018-03-23T23:07:07.526Z,38.09
2018-03-23T23:09:33.876Z,38.15
2018-03-23T23:12:00.279Z,38.08
2018-03-23T23:14:26.642Z,38.16
2018-03-23T23:16:53.069Z,38.23
2018-03-23T23:19:19.421Z,38.24
2018-03-23T23:21:45.895Z,38.17
2018-03-23T23:24:12.296Z,38.12
2018-03-23T23:26:38.661Z,38.04
2018-03-23T23:29:05.052Z,38.12
2018-03-23T23:31:31.415Z,38.12
2018-03-23T23:33:57.766Z,38.14
2018-03-23T23:36:24.137Z,38.16
2018-03-23T23:38:50.518Z,38.23
2018-03-23T23:41:16.871Z,38.27
2018-03-23T23:43:43.322Z,38.21
2018-03-23T23:46:09.788Z,38.28
2018-03-23T23:48:36.150Z,38.23
2018-03-23T23:51:02.559Z,38.25
2018-03-23T23:53:28.891Z,38.29
2018-03-23T23:55:55.263Z,38.37
2018-03-23T23:58:21.619Z,38.43
